createdAt,value
2022-11-21T05:01:10.254Z,-3.47
2022-11-21T05:03:39.704Z,-3.50
2022-11-21T05:06:08.842Z,-3.58
2022-11-21T05:08:38.398Z,-3.65
2022-11-21T05:11:26.631Z,-3.62
2022-11-21T05:13:56.232Z,-3.56
2022-11-21T05:16:25.471Z,-3.54
2022-11-21T05:18:55.006Z,-3.59
2022-11-21T05:21:24.329Z,-3.62
2022-11-21T05:23:54.010Z,-3.64
2022-11-21T05:26:23.262Z,-3.68
2022-11-21T05:28:52.526Z,-3.68
2022-11-21T05:31:21.868Z,-3.66
2022-11-21T05:33:51.208Z,-3.57
2022-11-21T05:36:20.559Z,-3.58
2022-11-21T05:38:50.144Z,-3.54
2022-11-21T05:41:19.479Z,-3.51
2022-11-21T05:43:49.324Z,-3.51
2022-11-21T05:46:23.219Z,-3.54
2022-11-21T05:48:54.614Z,-3.49
2022-11-21T05:51:23.888Z,-3.45
2022-11-21T05:53:53.424Z,-3.43
2022-11-21T05:56:22.573Z,-3.39
2022-11-21T05:58:52.075Z,-3.41
2022-11-21T06:01:41.968Z,-3.38
2022-11-21T06:04:12.433Z,-3.33
2022-11-21T06:06:42.344Z,-3.32
2022-11-21T06:09:11.939Z,-3.35
2022-11-21T06:11:41.501Z,-3.43
2022-11-21T06:14:10.919Z,-3.43
2022-11-21T06:16:39.538Z,-3.41
2022-11-21T06:19:08.892Z,-3.44
2022-11-21T06:21:37.483Z,-3.49
2022-11-21T06:24:08.449Z,-3.44
2022-11-21T06:26:38.260Z,-3.39
2022-11-21T06:29:06.815Z,-3.37
2022-11-21T06:31:35.760Z,-3.30
2022-11-21T06:34:05.659Z,-3.22
2022-11-21T06:36:35.839Z,-3.18
2022-11-21T06:39:05.332Z,-3.10
2022-11-21T06:41:34.549Z,-2.98
2022-11-21T06:44:03.493Z,-2.92
2022-11-21T06:46:32.579Z,-2.87
2022-11-21T06:49:01.605Z,-2.81
2022-11-21T06:51:31.254Z,-2.78
2022-11-21T06:54:01.718Z,-2.78
2022-11-21T06:56:33.291Z,-2.76
2022-11-21T06:59:01.856Z,-2.74
2022-11-21T07:01:31.271Z,-2.75
2022-11-21T07:04:01.642Z,-2.73
2022-11-21T07:06:32.681Z,-2.71
2022-11-21T07:12:17.870Z,-2.63
2022-11-21T07:14:47.283Z,-2.62
2022-11-21T07:17:16.837Z,-2.58
2022-11-21T07:19:45.416Z,-2.52
2022-11-21T07:22:14.412Z,-2.43
2022-11-21T07:24:43.378Z,-2.37
2022-11-21T07:27:13.025Z,-2.36
2022-11-21T07:29:42.344Z,-2.34
2022-11-21T07:32:11.534Z,-2.30
2022-11-21T07:34:40.428Z,-2.20
2022-11-21T07:37:09.886Z,-2.13
2022-11-21T07:39:39.178Z,-2.09
2022-11-21T07:42:07.623Z,-2.10
2022-11-21T07:44:38.200Z,-2.06
2022-11-21T07:47:07.109Z,-2.00
2022-11-21T07:49:35.676Z,-1.97
2022-11-21T07:52:04.663Z,-1.99
2022-11-21T07:54:33.197Z,-1.99
2022-11-21T07:57:01.748Z,-1.96
2022-11-21T07:59:30.600Z,-1.86
2022-11-21T08:01:59.383Z,-1.80
2022-11-21T08:04:29.071Z,-1.77
2022-11-21T08:06:58.192Z,-1.69
2022-11-21T08:09:30.325Z,-1.64
2022-11-21T08:11:59.008Z,-1.51
2022-11-21T08:14:27.347Z,-1.45
2022-11-21T08:16:55.865Z,-1.42
2022-11-21T08:19:24.885Z,-1.31
2022-11-21T08:21:53.637Z,-1.19
2022-11-21T08:24:23.009Z,-1.11
2022-11-21T08:26:52.567Z,-0.98
2022-11-21T08:29:23.919Z,-0.90
2022-11-21T08:31:53.153Z,-0.77
2022-11-21T08:34:22.503Z,-0.64
2022-11-21T08:36:52.134Z,-0.58
2022-11-21T08:39:21.324Z,-0.51
2022-11-21T08:42:06.078Z,-0.50
2022-11-21T08:44:35.995Z,-0.49
2022-11-21T08:47:07.140Z,-0.51
2022-11-21T08:49:36.787Z,-0.49
2022-11-21T08:52:06.257Z,-0.44
2022-11-21T08:54:35.487Z,-0.40
2022-11-21T08:57:05.129Z,-0.33
2022-11-21T08:59:34.343Z,-0.23
2022-11-21T09:02:02.967Z,-0.16
2022-11-21T09:04:32.611Z,-0.11
2022-11-21T09:07:02.635Z,-0.05
2022-11-21T09:09:32.155Z,0.06
2022-11-21T09:12:03.393Z,0.14
2022-11-21T09:14:51.839Z,0.22
2022-11-21T09:17:40.087Z,0.26
2022-11-21T09:20:10.241Z,0.34
2022-11-21T09:22:39.630Z,0.42
2022-11-21T09:25:09.475Z,0.47
2022-11-21T09:27:38.799Z,0.51
2022-11-21T09:30:08.725Z,0.55
2022-11-21T09:32:38.197Z,0.58
2022-11-21T09:35:07.438Z,0.58
2022-11-21T09:37:39.744Z,0.57
2022-11-21T09:40:16.815Z,0.58
2022-11-21T09:43:03.339Z,0.60
2022-11-21T09:45:42.560Z,0.65
2022-11-21T09:48:24.731Z,0.68
2022-11-21T09:51:07.060Z,0.70
2022-11-21T09:53:59.002Z,0.75
2022-11-21T09:56:32.047Z,0.80
2022-11-21T09:59:31.212Z,0.82
2022-11-21T10:02:01.535Z,0.89
2022-11-21T10:04:32.430Z,0.89
2022-11-21T10:07:17.976Z,0.85
2022-11-21T10:10:05.683Z,0.81
2022-11-21T10:12:46.230Z,0.78
2022-11-21T10:15:39.093Z,0.78
2022-11-21T10:18:33.180Z,0.72
2022-11-21T10:21:05.921Z,0.68
2022-11-21T10:23:47.577Z,0.67
2022-11-21T10:26:39.289Z,0.66
2022-11-21T10:29:28.936Z,0.72
2022-11-21T10:32:03.757Z,0.77
2022-11-21T10:34:38.659Z,0.84
2022-11-21T10:37:38.076Z,0.87
2022-11-21T10:40:37.645Z,0.86
2022-11-21T10:43:50.795Z,0.80
2022-11-21T10:46:20.402Z,0.76
2022-11-21T10:49:00.103Z,0.74
2022-11-21T10:51:54.205Z,0.77
2022-11-21T10:54:35.742Z,0.78
2022-11-21T10:57:17.581Z,0.77
2022-11-21T11:00:01.432Z,0.74
2022-11-21T11:02:30.763Z,0.77
2022-11-21T11:05:23.708Z,0.75
2022-11-21T11:08:14.494Z,0.74
2022-11-21T11:11:06.431Z,0.76
2022-11-21T11:13:57.818Z,0.76
2022-11-21T11:16:28.955Z,0.74
2022-11-21T11:19:14.907Z,0.72
2022-11-21T11:21:46.393Z,0.75
2022-11-21T11:24:14.787Z,0.75
2022-11-21T11:27:01.225Z,0.69
2022-11-21T11:29:32.888Z,0.66
2022-11-21T11:32:04.659Z,0.66
2022-11-21T11:34:37.460Z,0.64
2022-11-21T11:37:17.318Z,0.63
2022-11-21T11:40:05.201Z,0.59
2022-11-21T11:43:18.563Z,0.59
2022-11-21T11:46:41.528Z,0.53
2022-11-21T11:49:55.829Z,0.52
2022-11-21T11:52:29.708Z,0.56
2022-11-21T11:55:08.426Z,0.59
2022-11-21T11:57:39.106Z,0.67
2022-11-21T12:00:48.150Z,0.68
2022-11-21T12:03:25.383Z,0.75
2022-11-21T12:06:09.761Z,0.77
2022-11-21T12:09:02.483Z,0.77
2022-11-21T12:12:08.606Z,0.74
2022-11-21T12:15:19.488Z,0.78
2022-11-21T12:18:18.281Z,0.80
2022-11-21T12:21:19.222Z,0.84
2022-11-21T12:23:52.142Z,0.86
2022-11-21T12:26:21.567Z,0.83
2022-11-21T12:29:01.007Z,0.84
2022-11-21T12:31:57.678Z,0.81
2022-11-21T12:34:44.988Z,0.82
2022-11-21T12:37:18.205Z,0.85
2022-11-21T12:40:00.960Z,0.82
2022-11-21T12:43:08.697Z,0.82
2022-11-21T12:46:01.447Z,0.75
2022-11-21T12:49:17.521Z,0.70
2022-11-21T12:52:52.195Z,0.67
2022-11-21T12:55:41.073Z,0.67
2022-11-21T12:58:33.441Z,0.66
2022-11-21T13:01:20.910Z,0.68
2022-11-21T13:04:23.368Z,0.69
2022-11-21T13:06:56.560Z,0.68
2022-11-21T13:09:28.849Z,0.67
2022-11-21T13:12:09.097Z,0.69
2022-11-21T13:15:00.630Z,0.69
2022-11-21T13:17:38.058Z,0.59
2022-11-21T13:20:46.702Z,0.55
2022-11-21T13:23:48.160Z,0.56
2022-11-21T13:26:26.897Z,0.48
2022-11-21T13:29:09.353Z,0.46
2022-11-21T13:31:42.164Z,0.50
2022-11-21T13:34:38.732Z,0.48
2022-11-21T13:37:09.602Z,0.49
2022-11-21T13:39:39.649Z,0.53
2022-11-21T13:42:29.229Z,0.58
2022-11-21T13:45:00.021Z,0.62
2022-11-21T13:47:32.336Z,0.60
2022-11-21T13:50:26.425Z,0.59
2022-11-21T13:53:24.771Z,0.57
2022-11-21T13:56:01.875Z,0.56
2022-11-21T13:58:55.851Z,0.52
2022-11-21T14:01:28.290Z,0.52
2022-11-21T14:04:19.127Z,0.54
2022-11-21T14:06:48.838Z,0.47
2022-11-21T14:09:23.115Z,0.44
2022-11-21T14:11:58.007Z,0.46
2022-11-21T14:14:39.539Z,0.46
2022-11-21T14:17:24.020Z,0.49
2022-11-21T14:19:56.613Z,0.52
2022-11-21T14:22:45.655Z,0.50
2022-11-21T14:25:20.419Z,0.49
2022-11-21T14:27:52.681Z,0.46
2022-11-21T14:30:33.370Z,0.47
2022-11-21T14:33:25.669Z,0.48
2022-11-21T14:35:55.061Z,0.51
2022-11-21T14:38:25.077Z,0.53
2022-11-21T14:41:13.410Z,0.53
2022-11-21T14:43:42.448Z,0.52
2022-11-21T14:46:16.704Z,0.47
2022-11-21T14:48:45.542Z,0.49
2022-11-21T14:51:20.313Z,0.51
2022-11-21T14:53:51.198Z,0.54
2022-11-21T14:56:26.128Z,0.51
2022-11-21T14:58:56.874Z,0.52
2022-11-21T15:01:28.965Z,0.56
2022-11-21T15:04:06.291Z,0.59
2022-11-21T15:06:43.493Z,0.59
2022-11-21T15:12:50.733Z,0.58
2022-11-21T15:15:29.144Z,0.64
2022-11-21T15:18:26.514Z,0.69
2022-11-21T15:20:56.457Z,0.73
2022-11-21T15:23:44.438Z,0.74
2022-11-21T15:26:55.605Z,0.80
2022-11-21T15:29:34.411Z,0.83
2022-11-21T15:32:16.534Z,0.84
2022-11-21T15:35:39.883Z,0.82
2022-11-21T15:38:24.476Z,0.78
2022-11-21T15:40:59.191Z,0.74
2022-11-21T15:43:39.484Z,0.75
2022-11-21T15:46:26.845Z,0.77
2022-11-21T15:49:25.154Z,0.76
2022-11-21T15:52:06.491Z,0.78
2022-11-21T15:54:36.642Z,0.78
2022-11-21T15:57:05.070Z,0.81
2022-11-21T15:59:33.724Z,0.82
2022-11-21T16:02:02.943Z,0.82
2022-11-21T16:04:31.996Z,0.86
2022-11-21T16:07:01.227Z,0.95
2022-11-21T16:09:30.978Z,0.96
2022-11-21T16:12:00.524Z,0.98
2022-11-21T16:14:29.732Z,1.00
2022-11-21T16:16:59.151Z,1.02
2022-11-21T16:19:28.788Z,1.07
2022-11-21T16:21:58.778Z,1.09
2022-11-21T16:24:28.101Z,1.08
2022-11-21T16:26:57.709Z,1.10
2022-11-21T16:29:27.292Z,1.12
2022-11-21T16:31:56.973Z,1.15
2022-11-21T16:34:27.929Z,1.15
2022-11-21T16:36:57.156Z,1.11
2022-11-21T16:39:25.950Z,1.13
2022-11-21T16:41:54.749Z,1.17
2022-11-21T16:44:23.678Z,1.17
2022-11-21T16:46:54.935Z,1.14
2022-11-21T16:49:25.113Z,1.15
2022-11-21T16:51:53.993Z,1.12
2022-11-21T16:54:22.557Z,1.13
2022-11-21T16:56:51.088Z,1.15
2022-11-21T16:59:19.557Z,1.16
2022-11-21T17:01:48.299Z,1.21
2022-11-21T17:04:17.610Z,1.19
2022-11-21T17:06:49.461Z,1.17
2022-11-21T17:09:18.036Z,1.20
2022-11-21T17:11:47.285Z,1.23
2022-11-21T17:14:16.905Z,1.24
2022-11-21T17:16:46.221Z,1.27
2022-11-21T17:19:16.419Z,1.28
2022-11-21T17:21:45.137Z,1.33
2022-11-21T17:24:14.292Z,1.40
2022-11-21T17:26:43.463Z,1.42
2022-11-21T17:29:13.218Z,1.45
2022-11-21T17:31:43.063Z,1.43
2022-11-21T17:34:12.158Z,1.41
2022-11-21T17:36:40.807Z,1.43
2022-11-21T17:39:15.401Z,1.43
2022-11-21T17:41:45.326Z,1.42
2022-11-21T17:44:18.039Z,1.41
2022-11-21T17:46:47.881Z,1.40
2022-11-21T17:49:16.694Z,1.40
2022-11-21T17:51:46.109Z,1.39
2022-11-21T17:54:15.512Z,1.41
2022-11-21T17:56:47.396Z,1.44
2022-11-21T17:59:20.996Z,1.50
2022-11-21T18:01:50.332Z,1.51
2022-11-21T18:04:19.942Z,1.52
2022-11-21T18:06:49.887Z,1.50
2022-11-21T18:09:19.644Z,1.49
2022-11-21T18:11:48.901Z,1.51
2022-11-21T18:14:19.588Z,1.54
2022-11-21T18:16:53.021Z,1.56
2022-11-21T18:19:23.498Z,1.59
2022-11-21T18:21:54.057Z,1.58
2022-11-21T18:24:22.882Z,1.58
2022-11-21T18:26:51.933Z,1.61
2022-11-21T18:29:38.705Z,1.60
2022-11-21T18:32:09.028Z,1.65
2022-11-21T18:34:41.194Z,1.63
2022-11-21T18:37:10.969Z,1.61
2022-11-21T18:39:40.139Z,1.60
2022-11-21T18:42:09.243Z,1.60
2022-11-21T18:44:38.960Z,1.54
2022-11-21T18:47:19.777Z,1.52
2022-11-21T18:49:49.873Z,1.50
2022-11-21T18:52:18.778Z,1.53
2022-11-21T18:54:47.426Z,1.53
2022-11-21T18:57:16.462Z,1.50
2022-11-21T18:59:45.165Z,1.49
2022-11-21T19:02:14.493Z,1.47
2022-11-21T19:04:43.782Z,1.50
2022-11-21T19:07:12.480Z,1.53
2022-11-21T19:09:41.927Z,1.51
2022-11-21T19:12:11.443Z,1.51
2022-11-21T19:14:40.111Z,1.49
2022-11-21T19:17:08.904Z,1.44
2022-11-21T19:19:38.048Z,1.47
2022-11-21T19:22:07.123Z,1.46
2022-11-21T19:24:35.979Z,1.46
2022-11-21T19:27:04.637Z,1.51
2022-11-21T19:29:33.494Z,1.54
2022-11-21T19:32:02.644Z,1.61
2022-11-21T19:34:33.101Z,1.62
2022-11-21T19:37:02.195Z,1.67
2022-11-21T19:39:31.602Z,1.69
2022-11-21T19:42:00.438Z,1.65
2022-11-21T19:44:29.597Z,1.66
2022-11-21T19:46:58.554Z,1.71
2022-11-21T19:49:28.193Z,1.72
2022-11-21T19:51:57.646Z,1.74
2022-11-21T19:54:26.938Z,1.75
2022-11-21T19:56:56.580Z,1.73
2022-11-21T19:59:25.815Z,1.74
2022-11-21T20:01:54.982Z,1.75
2022-11-21T20:04:24.503Z,1.79
2022-11-21T20:06:54.143Z,1.82
2022-11-21T20:09:23.803Z,1.87
2022-11-21T20:11:53.717Z,1.88
2022-11-21T20:14:26.250Z,1.86
2022-11-21T20:16:55.692Z,1.87
2022-11-21T20:19:25.458Z,1.90
2022-11-21T20:21:56.041Z,1.88
2022-11-21T20:24:25.099Z,1.89
2022-11-21T20:26:54.512Z,1.88
2022-11-21T20:29:23.683Z,1.83
2022-11-21T20:31:53.136Z,1.78
2022-11-21T20:34:22.571Z,1.80
2022-11-21T20:36:52.345Z,1.86
2022-11-21T20:39:22.107Z,1.96
2022-11-21T20:41:51.415Z,2.04
2022-11-21T20:47:11.484Z,2.12
2022-11-21T20:49:40.684Z,2.08
2022-11-21T20:55:00.015Z,2.05
2022-11-21T20:57:30.962Z,2.01
2022-11-21T21:00:00.305Z,1.95
2022-11-21T21:02:29.811Z,2.00
2022-11-21T21:04:59.281Z,2.07
2022-11-21T21:07:28.673Z,2.07
2022-11-21T21:09:59.477Z,2.08
2022-11-21T21:12:32.016Z,2.06
2022-11-21T21:15:01.644Z,2.07
2022-11-21T21:17:31.142Z,2.11
2022-11-21T21:20:00.764Z,2.19
2022-11-21T21:22:30.091Z,2.24
2022-11-21T21:24:59.477Z,2.27
2022-11-21T21:27:28.923Z,2.23
2022-11-21T21:29:58.219Z,2.22
2022-11-21T21:32:27.708Z,2.29
2022-11-21T21:35:00.031Z,2.35
2022-11-21T21:37:29.991Z,2.33
2022-11-21T21:40:03.973Z,2.28
2022-11-21T21:42:36.283Z,2.33
2022-11-21T21:45:05.676Z,2.33
2022-11-21T21:47:35.529Z,2.26
2022-11-21T21:50:09.178Z,2.27
2022-11-21T21:52:42.034Z,2.31
2022-11-21T21:55:11.340Z,2.26
2022-11-21T21:57:46.038Z,2.28
2022-11-21T22:04:14.490Z,2.32
2022-11-21T22:06:44.113Z,2.32
2022-11-21T22:09:16.144Z,2.33
2022-11-21T22:11:47.609Z,2.31
2022-11-21T22:14:18.924Z,2.26
2022-11-21T22:16:48.481Z,2.25
2022-11-21T22:19:18.715Z,2.23
2022-11-21T22:21:48.106Z,2.26
2022-11-21T22:24:26.836Z,2.34
2022-11-21T22:26:57.331Z,2.33
2022-11-21T22:29:27.201Z,2.38
2022-11-21T22:31:57.306Z,2.36
2022-11-21T22:34:27.742Z,2.34
2022-11-21T22:36:57.698Z,2.34
2022-11-21T22:39:27.963Z,2.41
2022-11-21T22:41:59.942Z,2.41
2022-11-21T22:44:30.383Z,2.46
2022-11-21T22:47:00.196Z,2.52
2022-11-21T22:49:29.579Z,2.47
2022-11-21T22:51:59.052Z,2.43
2022-11-21T22:54:28.623Z,2.47
2022-11-21T22:56:58.249Z,2.44
2022-11-21T22:59:27.526Z,2.46
2022-11-21T23:01:56.929Z,2.47
2022-11-21T23:04:32.114Z,2.44
2022-11-21T23:07:02.524Z,2.46
2022-11-21T23:09:36.934Z,2.53
2022-11-21T23:12:07.776Z,2.60
2022-11-21T23:14:37.927Z,2.63
2022-11-21T23:17:07.442Z,2.61
2022-11-21T23:19:36.915Z,2.52
2022-11-21T23:22:06.407Z,2.46
2022-11-21T23:24:35.639Z,2.37
2022-11-21T23:27:05.631Z,2.36
2022-11-21T23:29:34.761Z,2.39
2022-11-21T23:32:04.286Z,2.41
2022-11-21T23:34:33.421Z,2.44
2022-11-21T23:37:02.841Z,2.45
2022-11-21T23:39:32.351Z,2.51
2022-11-21T23:42:01.706Z,2.56
2022-11-21T23:44:31.113Z,2.58
2022-11-21T23:47:00.516Z,2.58
2022-11-21T23:49:29.903Z,2.61
2022-11-21T23:51:59.439Z,2.62
2022-11-21T23:54:28.786Z,2.60
2022-11-21T23:56:58.216Z,2.53
2022-11-21T23:59:27.571Z,2.49
